createdAt,value
2023-05-05T00:00:13.511Z,4.43
2023-05-05T00:02:42.016Z,5.20
2023-05-05T00:05:10.457Z,4.38
2023-05-05T00:07:38.700Z,5.80
2023-05-05T00:10:07.472Z,5.30
2023-05-05T00:12:35.768Z,4.93
2023-05-05T00:15:04.352Z,6.03
2023-05-05T00:17:32.412Z,5.30
2023-05-05T00:20:00.525Z,5.18
2023-05-05T00:22:29.156Z,5.97
2023-05-05T00:24:57.401Z,5.80
2023-05-05T00:27:25.517Z,4.85
2023-05-05T00:29:53.550Z,6.28
2023-05-05T00:32:21.594Z,7.25
2023-05-05T00:34:49.852Z,5.68
2023-05-05T00:37:17.964Z,6.53
2023-05-05T00:39:46.245Z,7.07
2023-05-05T00:42:14.330Z,5.70
2023-05-05T00:44:42.813Z,5.30
2023-05-05T00:47:12.051Z,5.43
2023-05-05T00:49:40.863Z,4.35
2023-05-05T00:52:10.258Z,5.70
2023-05-05T00:54:39.402Z,5.05
2023-05-05T00:57:07.616Z,4.63
2023-05-05T00:59:37.392Z,5.55
2023-05-05T01:02:05.525Z,5.30
2023-05-05T01:04:33.631Z,5.97
2023-05-05T01:07:47.340Z,5.25
2023-05-05T01:10:44.820Z,5.60
2023-05-05T01:13:40.509Z,5.35
2023-05-05T01:16:16.651Z,7.65
2023-05-05T01:18:53.872Z,9.40
2023-05-05T01:21:54.253Z,11.40
2023-05-05T01:24:49.229Z,15.73
2023-05-05T01:27:41.908Z,13.20
2023-05-05T01:30:19.094Z,13.02
2023-05-05T01:32:53.812Z,9.85
2023-05-05T01:35:30.637Z,11.63
2023-05-05T01:38:08.504Z,10.18
2023-05-05T01:40:45.698Z,9.95
2023-05-05T01:43:16.372Z,9.80
2023-05-05T01:45:45.798Z,7.35
2023-05-05T01:48:20.098Z,5.97
2023-05-05T01:50:50.435Z,7.10
2023-05-05T01:53:20.711Z,9.02
2023-05-05T01:55:51.114Z,14.60
2023-05-05T01:58:21.900Z,26.50
2023-05-05T02:00:51.748Z,27.98
2023-05-05T02:03:22.955Z,27.27
2023-05-05T02:05:53.530Z,30.83
2023-05-05T02:08:21.980Z,32.05
2023-05-05T02:10:53.093Z,33.15
2023-05-05T02:13:22.874Z,32.58
2023-05-05T02:15:52.469Z,35.22
2023-05-05T02:18:22.483Z,33.00
2023-05-05T02:20:51.420Z,33.08
2023-05-05T02:23:20.054Z,32.33
2023-05-05T02:25:53.532Z,31.58
2023-05-05T02:28:23.842Z,33.72
2023-05-05T02:31:01.556Z,38.15
2023-05-05T02:33:34.387Z,43.83
2023-05-05T02:36:34.011Z,42.97
2023-05-05T02:39:12.873Z,39.47
2023-05-05T02:41:43.487Z,40.22
2023-05-05T02:44:25.092Z,38.72
2023-05-05T02:46:55.343Z,41.97
2023-05-05T02:49:25.003Z,39.97
2023-05-05T02:51:58.694Z,38.25
2023-05-05T02:54:32.869Z,37.22
2023-05-05T02:57:03.316Z,32.60
2023-05-05T02:59:50.962Z,32.30
2023-05-05T03:02:35.516Z,31.95
2023-05-05T03:05:11.338Z,31.67
2023-05-05T03:08:03.014Z,26.92
2023-05-05T03:10:43.024Z,24.38
2023-05-05T03:13:14.615Z,23.58
2023-05-05T03:15:48.507Z,23.35
2023-05-05T03:18:21.775Z,21.83
2023-05-05T03:20:57.412Z,20.50
2023-05-05T03:23:25.991Z,18.52
2023-05-05T03:25:59.022Z,19.58
2023-05-05T03:28:31.633Z,17.23
2023-05-05T03:31:04.453Z,15.25
2023-05-05T03:33:34.888Z,16.52
2023-05-05T03:36:02.984Z,16.92
2023-05-05T03:38:31.246Z,16.98
2023-05-05T03:41:02.630Z,14.23
2023-05-05T03:43:31.826Z,16.40
2023-05-05T03:46:00.501Z,15.90
2023-05-05T03:48:29.349Z,17.35
2023-05-05T03:50:57.796Z,17.38
2023-05-05T03:53:28.335Z,16.52
2023-05-05T03:55:56.450Z,17.67
2023-05-05T03:58:24.580Z,19.58
2023-05-05T04:00:53.043Z,19.70
2023-05-05T04:03:21.850Z,20.30
2023-05-05T04:05:50.375Z,19.67
2023-05-05T04:08:18.480Z,22.20
2023-05-05T04:10:46.771Z,20.92
2023-05-05T04:13:15.170Z,20.80
2023-05-05T04:15:49.376Z,20.67
2023-05-05T04:18:18.837Z,20.10
2023-05-05T04:20:47.430Z,19.83
2023-05-05T04:23:15.573Z,20.95
2023-05-05T04:25:45.779Z,19.25
2023-05-05T04:28:14.247Z,18.60
2023-05-05T04:30:42.894Z,19.15
2023-05-05T04:33:11.533Z,15.27
2023-05-05T04:35:39.760Z,14.13
2023-05-05T04:38:08.409Z,13.38
2023-05-05T04:40:40.311Z,14.45
2023-05-05T04:43:09.755Z,15.50
2023-05-05T04:45:38.230Z,12.57
2023-05-05T04:48:07.103Z,12.27
2023-05-05T04:50:35.281Z,13.85
2023-05-05T04:53:03.460Z,12.95
2023-05-05T04:55:31.601Z,13.23
2023-05-05T04:57:59.640Z,15.18
2023-05-05T05:00:27.767Z,14.68
2023-05-05T05:02:56.183Z,12.93
2023-05-05T05:05:24.319Z,13.68
2023-05-05T05:07:52.404Z,15.00
2023-05-05T05:10:20.578Z,13.55
2023-05-05T05:12:49.139Z,13.10
2023-05-05T05:15:17.355Z,13.98
2023-05-05T05:17:45.727Z,14.20
2023-05-05T05:20:14.027Z,13.38
2023-05-05T05:22:42.091Z,14.70
2023-05-05T05:25:15.266Z,14.27
2023-05-05T05:27:44.759Z,14.65
2023-05-05T05:30:15.412Z,14.10
2023-05-05T05:32:43.712Z,13.80
2023-05-05T05:35:12.018Z,13.77
2023-05-05T05:37:40.892Z,13.68
2023-05-05T05:40:10.166Z,13.95
2023-05-05T05:42:39.320Z,16.08
2023-05-05T05:45:08.661Z,16.27
2023-05-05T05:47:37.264Z,15.43
2023-05-05T05:50:07.018Z,14.23
2023-05-05T05:52:36.357Z,15.43
2023-05-05T05:55:07.643Z,15.25
2023-05-05T05:57:36.205Z,13.90
2023-05-05T06:00:07.111Z,15.18
2023-05-05T06:02:44.633Z,14.02
2023-05-05T06:05:17.092Z,14.43
2023-05-05T06:07:47.095Z,13.00
2023-05-05T06:10:27.206Z,13.63
2023-05-05T06:13:13.235Z,13.55
2023-05-05T06:15:45.526Z,12.07
2023-05-05T06:18:15.225Z,12.07
2023-05-05T06:20:43.775Z,11.40
2023-05-05T06:23:14.113Z,12.52
2023-05-05T06:25:47.567Z,13.48
2023-05-05T06:28:15.960Z,12.07
2023-05-05T06:30:44.094Z,12.90
2023-05-05T06:33:12.613Z,13.63
2023-05-05T06:35:40.683Z,12.32
2023-05-05T06:38:08.850Z,13.30
2023-05-05T06:40:37.187Z,11.98
2023-05-05T06:43:05.268Z,11.05
2023-05-05T06:45:38.011Z,13.55
2023-05-05T06:48:06.403Z,13.98
2023-05-05T06:50:34.501Z,14.25
2023-05-05T06:53:02.757Z,14.07
2023-05-05T06:55:31.133Z,14.00
2023-05-05T06:57:59.400Z,15.10
2023-05-05T07:00:27.597Z,17.02
2023-05-05T07:02:55.885Z,19.13
2023-05-05T07:05:24.286Z,23.02
2023-05-05T07:07:53.761Z,23.73
2023-05-05T07:10:23.199Z,24.20
2023-05-05T07:12:52.273Z,22.75
2023-05-05T07:15:28.666Z,22.65
2023-05-05T07:17:58.586Z,21.45
2023-05-05T07:20:27.132Z,20.80
2023-05-05T07:22:55.504Z,22.25
2023-05-05T07:25:23.555Z,22.50
2023-05-05T07:27:51.823Z,21.83
2023-05-05T07:30:20.383Z,19.60
2023-05-05T07:32:49.036Z,22.55
2023-05-05T07:35:17.542Z,21.17
2023-05-05T07:37:46.523Z,19.35
2023-05-05T07:40:14.840Z,20.33
2023-05-05T07:42:42.934Z,20.10
2023-05-05T07:45:12.124Z,20.60
2023-05-05T07:47:40.533Z,22.17
2023-05-05T07:50:09.659Z,19.15
2023-05-05T07:52:48.282Z,16.63
2023-05-05T07:55:22.133Z,18.63
2023-05-05T07:57:50.376Z,16.27
2023-05-05T08:00:18.940Z,15.93
2023-05-05T08:02:47.285Z,13.95
2023-05-05T08:05:15.599Z,12.45
2023-05-05T08:07:44.069Z,13.85
2023-05-05T08:10:12.939Z,12.40
2023-05-05T08:12:41.398Z,12.13
2023-05-05T08:15:10.184Z,11.75
2023-05-05T08:17:49.923Z,11.65
2023-05-05T08:20:20.054Z,11.82
2023-05-05T08:22:48.717Z,10.45
2023-05-05T08:25:16.911Z,13.32
2023-05-05T08:27:45.560Z,12.18
2023-05-05T08:30:14.132Z,10.45
2023-05-05T08:32:42.632Z,12.38
2023-05-05T08:35:11.159Z,11.02
2023-05-05T08:37:39.966Z,12.50
2023-05-05T08:40:11.651Z,12.40
2023-05-05T08:42:40.041Z,13.00
2023-05-05T08:45:09.979Z,10.75
2023-05-05T08:47:39.202Z,9.80
2023-05-05T08:50:10.630Z,11.43
2023-05-05T08:52:45.667Z,11.57
2023-05-05T08:55:20.600Z,13.43
2023-05-05T08:57:58.862Z,9.65
2023-05-05T09:00:28.274Z,9.93
2023-05-05T09:02:58.872Z,9.95
2023-05-05T09:05:27.530Z,19.13
2023-05-05T09:07:55.637Z,18.77
2023-05-05T09:10:25.089Z,11.07
2023-05-05T09:12:53.331Z,8.13
2023-05-05T09:15:21.750Z,9.98
2023-05-05T09:17:49.884Z,10.02
2023-05-05T09:20:18.121Z,16.63
2023-05-05T09:22:47.984Z,8.18
2023-05-05T09:25:18.613Z,6.30
2023-05-05T09:27:48.775Z,10.52
2023-05-05T09:30:23.920Z,5.53
2023-05-05T09:32:54.872Z,6.35
2023-05-05T09:35:24.078Z,5.65
2023-05-05T09:37:52.275Z,6.18
2023-05-05T09:40:21.668Z,5.20
2023-05-05T09:43:00.971Z,5.25
2023-05-05T09:45:29.976Z,5.03
2023-05-05T09:48:00.236Z,5.45
2023-05-05T09:50:28.961Z,5.15
2023-05-05T09:52:58.299Z,5.07
2023-05-05T09:55:26.392Z,4.78
2023-05-05T09:57:54.710Z,4.60
2023-05-05T10:00:23.029Z,4.90
2023-05-05T10:02:51.496Z,4.55
2023-05-05T10:05:21.139Z,4.03
2023-05-05T10:07:49.413Z,4.80
2023-05-05T10:10:18.786Z,5.65
2023-05-05T10:12:51.343Z,5.18
2023-05-05T10:15:19.722Z,4.35
2023-05-05T10:20:23.238Z,7.18
2023-05-05T10:22:55.906Z,7.00
2023-05-05T10:25:31.339Z,5.47
2023-05-05T10:28:01.201Z,6.40
2023-05-05T10:30:35.859Z,6.32
2023-05-05T10:35:57.720Z,9.30
2023-05-05T10:38:30.186Z,5.95
2023-05-05T10:41:01.060Z,6.60
2023-05-05T10:43:30.998Z,7.05
2023-05-05T10:46:00.374Z,6.07
2023-05-05T10:48:51.871Z,5.78
2023-05-05T10:51:41.284Z,5.63
2023-05-05T10:54:31.399Z,5.30
2023-05-05T10:57:01.424Z,5.53
2023-05-05T10:59:38.950Z,5.40
2023-05-05T11:02:23.400Z,6.13
2023-05-05T11:05:17.955Z,5.88
2023-05-05T11:07:48.434Z,4.97
2023-05-05T11:10:18.947Z,6.72
2023-05-05T11:12:53.293Z,5.88
2023-05-05T11:15:30.650Z,5.47
2023-05-05T11:18:05.876Z,6.20
2023-05-05T11:20:38.885Z,5.80
2023-05-05T11:23:07.263Z,5.68
2023-05-05T11:25:38.338Z,6.13
2023-05-05T11:28:14.211Z,24.90
2023-05-05T11:30:58.253Z,8.45
2023-05-05T11:33:37.818Z,8.85
2023-05-05T11:36:11.495Z,5.78
2023-05-05T11:39:04.913Z,5.80
2023-05-05T11:41:45.199Z,7.32
2023-05-05T11:44:16.985Z,5.18
2023-05-05T11:49:34.180Z,5.82
2023-05-05T11:52:11.847Z,6.75
2023-05-05T11:54:45.035Z,6.70
2023-05-05T11:57:13.268Z,6.88
2023-05-05T12:00:01.649Z,6.68
2023-05-05T12:02:32.978Z,7.70
2023-05-05T12:05:01.744Z,6.22
2023-05-05T12:07:32.482Z,5.68
2023-05-05T12:10:01.123Z,5.57
2023-05-05T12:12:41.534Z,6.55
2023-05-05T12:15:10.788Z,5.65
2023-05-05T12:17:43.522Z,5.63
2023-05-05T12:20:13.098Z,8.82
2023-05-05T12:22:41.798Z,8.73
2023-05-05T12:25:10.715Z,5.82
2023-05-05T12:27:39.227Z,7.55
2023-05-05T12:30:18.756Z,7.47
2023-05-05T12:32:47.202Z,7.25
2023-05-05T12:35:15.602Z,5.93
2023-05-05T12:37:44.325Z,8.55
2023-05-05T12:40:50.359Z,6.07
2023-05-05T12:43:32.103Z,6.80
2023-05-05T12:46:02.061Z,5.57
2023-05-05T12:48:30.580Z,5.20
2023-05-05T12:51:17.449Z,6.78
2023-05-05T12:54:01.393Z,6.72
2023-05-05T12:56:46.334Z,5.95
2023-05-05T12:59:23.680Z,6.13
2023-05-05T13:01:53.226Z,7.68
2023-05-05T13:04:23.400Z,7.80
2023-05-05T13:07:12.451Z,7.18
2023-05-05T13:09:41.259Z,4.97
2023-05-05T13:12:09.595Z,6.10
2023-05-05T13:14:41.209Z,5.85
2023-05-05T13:17:11.222Z,6.53
2023-05-05T13:19:40.221Z,5.40
2023-05-05T13:22:09.680Z,6.72
2023-05-05T13:24:49.814Z,16.42
2023-05-05T13:27:21.142Z,11.20
2023-05-05T13:29:49.364Z,7.03
2023-05-05T13:32:17.552Z,8.95
2023-05-05T13:34:46.022Z,8.00
2023-05-05T13:37:14.133Z,5.97
2023-05-05T13:39:42.536Z,6.18
2023-05-05T13:42:10.911Z,5.32
2023-05-05T13:44:39.040Z,6.88
2023-05-05T13:47:07.404Z,7.63
2023-05-05T13:49:36.134Z,6.85
2023-05-05T13:52:04.450Z,6.97
2023-05-05T13:54:32.804Z,9.35
2023-05-05T13:57:01.008Z,9.57
2023-05-05T13:59:29.155Z,6.03
2023-05-05T14:01:57.486Z,8.70
2023-05-05T14:04:25.983Z,8.82
2023-05-05T14:06:54.322Z,7.20
2023-05-05T14:09:22.560Z,8.10
2023-05-05T14:11:50.740Z,8.27
2023-05-05T14:14:19.047Z,7.25
2023-05-05T14:16:49.881Z,8.88
2023-05-05T14:19:18.531Z,7.28
2023-05-05T14:21:46.849Z,7.85
2023-05-05T14:24:15.124Z,5.68
2023-05-05T14:26:43.493Z,5.57
2023-05-05T14:29:11.687Z,8.77
2023-05-05T14:31:39.868Z,6.72
2023-05-05T14:34:08.074Z,8.18
2023-05-05T14:36:36.303Z,7.72
2023-05-05T14:39:06.190Z,7.53
2023-05-05T14:41:34.343Z,6.65
2023-05-05T14:44:02.491Z,6.47
2023-05-05T14:46:31.357Z,5.07
2023-05-05T14:49:00.094Z,12.85
2023-05-05T14:51:28.540Z,7.20
2023-05-05T14:53:56.604Z,7.45
2023-05-05T14:56:26.252Z,7.00
2023-05-05T14:58:54.464Z,6.10
2023-05-05T15:01:22.798Z,5.35
2023-05-05T15:03:51.613Z,5.57
2023-05-05T15:06:20.347Z,6.53
2023-05-05T15:08:48.515Z,6.13
2023-05-05T15:11:16.684Z,6.57
2023-05-05T15:13:44.997Z,6.10
2023-05-05T15:16:13.110Z,6.90
2023-05-05T15:18:41.410Z,8.20
2023-05-05T15:21:09.657Z,5.32
2023-05-05T15:23:38.190Z,6.03
2023-05-05T15:26:06.354Z,9.18
2023-05-05T15:28:34.514Z,14.02
2023-05-05T15:31:02.950Z,8.00
2023-05-05T15:33:31.149Z,8.32
2023-05-05T15:38:45.252Z,6.53
2023-05-05T15:41:13.396Z,5.22
2023-05-05T15:43:41.589Z,7.03
2023-05-05T15:46:09.712Z,6.43
2023-05-05T15:48:37.907Z,7.40
2023-05-05T15:51:06.151Z,7.28
2023-05-05T15:53:34.358Z,7.82
2023-05-05T15:56:02.613Z,6.47
2023-05-05T15:58:30.712Z,5.85
2023-05-05T16:00:59.087Z,5.50
2023-05-05T16:03:27.349Z,4.45
2023-05-05T16:05:55.643Z,5.00
2023-05-05T16:08:23.939Z,5.75
2023-05-05T16:10:52.069Z,5.65
2023-05-05T16:13:20.294Z,6.30
2023-05-05T16:15:48.601Z,4.82
2023-05-05T16:18:16.681Z,5.60
2023-05-05T16:20:44.861Z,6.07
2023-05-05T16:23:13.090Z,6.03
2023-05-05T16:25:41.237Z,6.05
2023-05-05T16:28:09.289Z,6.22
2023-05-05T16:30:37.590Z,7.30
2023-05-05T16:33:06.100Z,7.63
2023-05-05T16:35:34.435Z,7.93
2023-05-05T16:38:02.593Z,8.88
2023-05-05T16:40:31.182Z,8.68
2023-05-05T16:42:59.243Z,9.15
2023-05-05T16:45:27.539Z,8.27
2023-05-05T16:47:56.233Z,12.60
2023-05-05T16:50:24.798Z,10.50
2023-05-05T16:52:53.004Z,10.88
2023-05-05T16:55:21.306Z,12.88
2023-05-05T16:57:49.431Z,14.80
2023-05-05T17:00:17.862Z,18.63
2023-05-05T17:02:45.945Z,16.55
2023-05-05T17:05:14.191Z,16.77
2023-05-05T17:07:42.430Z,16.38
2023-05-05T17:10:11.006Z,17.23
2023-05-05T17:12:39.169Z,13.13
2023-05-05T17:15:08.699Z,13.73
2023-05-05T17:17:37.110Z,12.32
2023-05-05T17:20:05.653Z,12.13
2023-05-05T17:22:33.993Z,12.95
2023-05-05T17:25:02.058Z,14.25
2023-05-05T17:27:30.224Z,13.95
2023-05-05T17:29:58.510Z,10.13
2023-05-05T17:32:26.808Z,16.20
2023-05-05T17:34:54.963Z,10.13
2023-05-05T17:37:23.407Z,11.02
2023-05-05T17:39:51.457Z,9.10
2023-05-05T17:42:19.655Z,8.85
2023-05-05T17:44:47.852Z,7.57
2023-05-05T17:47:19.141Z,8.80
2023-05-05T17:49:47.384Z,10.65
2023-05-05T17:52:16.038Z,10.05
2023-05-05T17:54:44.263Z,10.07
2023-05-05T17:57:13.120Z,12.05
2023-05-05T17:59:41.303Z,10.90
2023-05-05T18:02:09.998Z,11.02
2023-05-05T18:04:38.958Z,12.98
2023-05-05T18:07:07.087Z,13.60
2023-05-05T18:09:35.814Z,13.25
2023-05-05T18:12:04.344Z,13.65
2023-05-05T18:14:32.767Z,15.30
2023-05-05T18:17:00.978Z,24.40
2023-05-05T18:19:29.177Z,24.15
2023-05-05T18:21:57.607Z,23.27
2023-05-05T18:24:26.121Z,24.13
2023-05-05T18:26:54.586Z,20.92
2023-05-05T18:29:23.169Z,21.17
2023-05-05T18:31:52.211Z,19.45
2023-05-05T18:34:20.977Z,17.75
2023-05-05T18:36:51.943Z,17.17
2023-05-05T18:39:20.488Z,18.10
2023-05-05T18:41:48.617Z,16.60
2023-05-05T18:44:17.474Z,41.17
2023-05-05T18:46:45.609Z,44.92
2023-05-05T18:49:14.169Z,31.23
2023-05-05T18:51:42.405Z,34.67
2023-05-05T18:54:10.694Z,22.75
2023-05-05T18:56:38.793Z,25.73
2023-05-05T18:59:07.112Z,16.02
2023-05-05T19:01:35.193Z,15.38
2023-05-05T19:04:05.454Z,13.77
2023-05-05T19:06:38.652Z,13.15
2023-05-05T19:09:06.910Z,13.75
2023-05-05T19:11:34.953Z,13.63
2023-05-05T19:14:03.232Z,15.82
2023-05-05T19:16:31.675Z,15.85
2023-05-05T19:18:59.950Z,14.32
2023-05-05T19:21:28.806Z,13.05
2023-05-05T19:23:57.236Z,10.95
2023-05-05T19:26:25.460Z,11.73
2023-05-05T19:28:53.715Z,11.25
2023-05-05T19:31:21.860Z,12.13
2023-05-05T19:33:50.140Z,11.18
2023-05-05T19:36:18.257Z,9.30
2023-05-05T19:38:46.685Z,9.10
2023-05-05T19:41:15.034Z,9.80
2023-05-05T19:43:43.209Z,11.32
2023-05-05T19:46:11.290Z,11.50
2023-05-05T19:48:39.734Z,7.70
2023-05-05T19:51:08.026Z,8.02
2023-05-05T19:53:36.264Z,6.93
2023-05-05T19:56:04.723Z,7.82
2023-05-05T19:59:02.132Z,8.85
2023-05-05T20:01:30.672Z,7.47
2023-05-05T20:03:59.024Z,6.45
2023-05-05T20:06:27.449Z,7.50
2023-05-05T20:08:55.852Z,6.97
2023-05-05T20:11:26.457Z,6.65
2023-05-05T20:13:54.812Z,8.40
2023-05-05T20:16:23.103Z,7.45
2023-05-05T20:18:51.906Z,6.45
2023-05-05T20:21:20.123Z,6.93
2023-05-05T20:23:48.745Z,7.22
2023-05-05T20:26:17.241Z,7.65
2023-05-05T20:28:45.526Z,5.78
2023-05-05T20:31:15.544Z,6.65
2023-05-05T20:33:43.813Z,7.32
2023-05-05T20:36:12.419Z,15.40
2023-05-05T20:38:40.561Z,11.45
2023-05-05T20:41:08.824Z,23.80
2023-05-05T20:43:37.766Z,23.33
2023-05-05T20:46:06.086Z,13.60
2023-05-05T20:48:34.271Z,12.43
2023-05-05T20:51:05.075Z,10.52
2023-05-05T20:53:33.534Z,9.30
2023-05-05T20:56:01.869Z,9.73
2023-05-05T20:58:30.669Z,8.75
2023-05-05T21:02:41.317Z,10.25
2023-05-05T21:05:10.052Z,8.95
2023-05-05T21:07:38.449Z,10.43
2023-05-05T21:10:07.824Z,10.82
2023-05-05T21:12:36.413Z,9.50
2023-05-05T21:15:04.875Z,11.20
2023-05-05T21:17:33.324Z,13.25
2023-05-05T21:20:01.435Z,13.35
2023-05-05T21:22:29.708Z,12.82
2023-05-05T21:25:28.073Z,12.82
2023-05-05T21:27:56.253Z,12.70
2023-05-05T21:30:24.952Z,15.07
2023-05-05T21:32:53.612Z,19.58
2023-05-05T21:35:21.866Z,25.42
2023-05-05T21:37:50.236Z,24.08
2023-05-05T21:40:18.589Z,25.10
2023-05-05T21:42:46.939Z,25.40
2023-05-05T21:45:15.035Z,24.63
2023-05-05T21:47:43.398Z,20.63
2023-05-05T21:50:12.519Z,18.02
2023-05-05T21:52:41.046Z,16.55
2023-05-05T21:55:09.695Z,16.02
2023-05-05T21:57:38.004Z,16.88
2023-05-05T22:00:06.826Z,15.77
2023-05-05T22:02:40.601Z,13.02
2023-05-05T22:05:09.377Z,13.32
2023-05-05T22:07:37.440Z,13.65
2023-05-05T22:10:06.061Z,13.00
2023-05-05T22:12:34.593Z,10.95
2023-05-05T22:15:02.844Z,13.45
2023-05-05T22:17:31.193Z,12.85
2023-05-05T22:19:59.815Z,12.63
2023-05-05T22:22:27.969Z,12.45
2023-05-05T22:24:56.420Z,11.75
2023-05-05T22:27:25.226Z,10.88
2023-05-05T22:29:53.472Z,12.30
2023-05-05T22:32:21.733Z,12.75
2023-05-05T22:34:50.170Z,13.18
2023-05-05T22:37:18.404Z,14.63
2023-05-05T22:39:46.697Z,14.45
2023-05-05T22:42:15.672Z,12.43
2023-05-05T22:44:43.854Z,12.65
2023-05-05T22:47:12.088Z,12.63
2023-05-05T22:49:40.873Z,12.00
2023-05-05T22:52:08.961Z,11.35
2023-05-05T22:54:37.243Z,12.27
2023-05-05T22:57:05.471Z,11.60
2023-05-05T22:59:33.606Z,11.43
2023-05-05T23:02:02.056Z,11.50
2023-05-05T23:04:30.754Z,11.63
2023-05-05T23:06:58.938Z,11.73
2023-05-05T23:09:27.193Z,13.65
2023-05-05T23:11:55.447Z,11.77
2023-05-05T23:14:23.692Z,12.18
2023-05-05T23:16:51.907Z,12.32
2023-05-05T23:19:20.490Z,12.80
2023-05-05T23:21:53.337Z,14.65
2023-05-05T23:24:22.950Z,13.68
2023-05-05T23:26:51.492Z,16.15
2023-05-05T23:29:20.318Z,16.48
2023-05-05T23:31:48.870Z,15.98
2023-05-05T23:34:17.301Z,16.23
2023-05-05T23:36:45.648Z,16.75
2023-05-05T23:39:13.889Z,15.32
2023-05-05T23:41:43.357Z,15.90
2023-05-05T23:44:11.563Z,16.48
2023-05-05T23:46:39.782Z,16.98
2023-05-05T23:49:09.042Z,16.25
2023-05-05T23:51:37.121Z,15.52
2023-05-05T23:54:05.557Z,15.07
2023-05-05T23:56:33.813Z,15.23
2023-05-05T23:59:01.860Z,16.15
